Time;durP1;ratioP1;P1;durP2;ratioP2;P2;SDS_P1;SDS_P2;PMS_P1;PMS_P2;Temp;Humidity;BMP_temperature;BMP_pressure;BME280_temperature;BME280_humidity;BME280_pressure;Samples;Min_cycle;Max_cycle;Signal;HPM_P1;HPM_P2
2022/08/21 00:01:14;;;;;;;3.20;2.63;;;;;;;16.65;84.93;155639.78;5015044;28;20939;-76
2022/08/21 00:03:41;;;;;;;4.13;3.10;;;;;;;16.58;86.09;155620.22;5014569;28;20446;-76
2022/08/21 00:06:08;;;;;;;3.50;2.97;;;;;;;16.51;90.86;155603.28;5014000;28;20880;-76
2022/08/21 00:08:35;;;;;;;3.80;3.50;;;;;;;16.41;89.22;155577.28;5021334;28;20448;-76
2022/08/21 00:11:02;;;;;;;3.70;2.80;;;;;;;16.38;90.31;155569.47;5031689;28;20514;-76
2022/08/21 00:13:30;;;;;;;3.10;2.80;;;;;;;16.31;89.34;155551.25;5031938;28;20485;-76
2022/08/21 00:15:57;;;;;;;5.80;3.10;;;;;;;16.26;88.31;155538.25;5030845;28;20458;-76
2022/08/21 00:18:24;;;;;;;2.90;2.60;;;;;;;16.26;88.94;155538.25;5048508;28;20458;-76
2022/08/21 00:20:51;;;;;;;3.43;3.00;;;;;;;16.19;89.41;155521.38;5034468;28;20529;-76
2022/08/21 00:23:18;;;;;;;3.60;3.10;;;;;;;16.17;89.84;155516.16;5033274;28;20450;-76
2022/08/21 00:25:46;;;;;;;3.20;2.70;;;;;;;16.14;88.62;155507.06;5032562;28;20542;-76
2022/08/21 00:28:13;;;;;;;4.90;3.40;;;;;;;16.12;92.30;155501.88;5031398;28;20853;-76
2022/08/21 00:30:44;;;;;;;3.30;2.90;;;;;;;16.07;87.83;155490.13;5034371;28;20518;-76
2022/08/21 00:33:12;;;;;;;3.30;2.80;;;;;;;16.08;89.45;155491.44;5025242;28;20942;-76
2022/08/21 00:35:41;;;;;;;3.93;3.20;;;;;;;16.05;88.11;155483.63;5016624;28;20613;-76
2022/08/21 00:38:09;;;;;;;4.93;3.27;;;;;;;16.03;88.70;155478.44;5043573;28;20546;-76
2022/08/21 00:40:39;;;;;;;6.80;3.00;;;;;;;15.99;86.95;155468.06;5030983;28;20527;-77
2022/08/21 00:43:09;;;;;;;4.70;2.83;;;;;;;16.00;88.07;155471.94;5014129;28;20452;-76
2022/08/21 00:45:36;;;;;;;4.90;3.10;;;;;;;15.99;88.22;155468.06;5012981;28;20728;-77
2022/08/21 00:48:05;;;;;;;5.83;3.10;;;;;;;15.97;88.93;155462.81;5030675;28;20458;-76
2022/08/21 00:50:36;;;;;;;3.97;2.90;;;;;;;15.95;87.30;155457.63;5009186;28;20777;-76
2022/08/21 00:53:04;;;;;;;3.27;2.97;;;;;;;15.93;88.44;155453.75;4998024;28;20504;-76
2022/08/21 00:55:32;;;;;;;5.80;3.50;;;;;;;15.90;87.89;155444.63;5002663;28;20579;-76
2022/08/21 00:58:00;;;;;;;3.83;3.43;;;;;;;15.89;87.57;155442.00;5031124;28;20443;-76
2022/08/21 01:00:30;;;;;;;7.30;5.03;;;;;;;15.82;87.49;155426.44;5013476;28;20443;-76
2022/08/21 01:02:57;;;;;;;7.87;5.60;;;;;;;15.83;87.25;155427.75;5030894;28;20923;-76
2022/08/21 01:05:26;;;;;;;6.20;4.27;;;;;;;15.81;87.94;155423.81;5015018;28;20449;-76
2022/08/21 01:07:53;;;;;;;6.70;4.57;;;;;;;15.79;87.41;155418.63;5018975;28;20447;-75
2022/08/21 01:10:20;;;;;;;4.60;4.10;;;;;;;15.78;88.23;155416.03;5033360;28;20533;-76
2022/08/21 01:12:47;;;;;;;5.33;3.47;;;;;;;15.76;87.33;155410.84;5033535;28;20435;-76
2022/08/21 01:15:15;;;;;;;4.93;2.90;;;;;;;15.77;87.75;155412.13;5032677;28;20549;-76
2022/08/21 01:17:42;;;;;;;6.17;3.07;;;;;;;15.76;88.52;155410.84;5030895;28;20546;-76
2022/08/21 01:20:11;;;;;;;3.23;2.97;;;;;;;15.77;89.00;155413.47;5030823;28;20451;-77
2022/08/21 01:22:39;;;;;;;4.30;3.13;;;;;;;15.78;89.37;155414.72;5012737;28;20546;-76
2022/08/21 01:25:09;;;;;;;5.83;3.67;;;;;;;15.82;90.59;155426.44;5039935;28;20478;-77
2022/08/21 01:27:36;;;;;;;3.80;2.90;;;;;;;15.81;90.74;155423.81;5033413;28;20483;-76
2022/08/21 01:30:10;;;;;;;3.50;3.03;;;;;;;15.73;90.46;155403.03;5016247;28;20474;-73
2022/08/21 01:32:37;;;;;;;3.63;2.90;;;;;;;15.70;90.11;155395.22;5024652;28;21040;-77
2022/08/21 01:35:05;;;;;;;3.53;3.00;;;;;;;15.73;89.87;155401.72;5016481;28;20476;-76
2022/08/21 01:37:32;;;;;;;4.10;3.20;;;;;;;15.70;89.47;155395.22;4996220;28;20452;-76
2022/08/21 01:40:00;;;;;;;3.67;3.37;;;;;;;15.75;90.86;155408.22;4999827;28;20439;-77
2022/08/21 01:42:27;;;;;;;3.80;3.00;;;;;;;15.78;90.21;155416.03;5031120;28;20447;-76
2022/08/21 01:44:54;;;;;;;3.63;2.80;;;;;;;15.79;91.00;155418.63;5042788;28;20482;-76
2022/08/21 01:47:20;;;;;;;5.10;3.63;;;;;;;15.76;88.94;155410.84;5051064;28;20993;-76
2022/08/21 01:49:47;;;;;;;3.60;3.07;;;;;;;15.71;87.97;155397.84;5032345;28;20482;-76
2022/08/21 01:52:14;;;;;;;4.47;3.60;;;;;;;15.67;89.61;155386.16;5034810;28;20448;-76
2022/08/21 01:54:41;;;;;;;3.50;3.20;;;;;;;15.71;89.13;155397.84;5012280;28;20482;-77
2022/08/21 01:57:10;;;;;;;4.30;3.50;;;;;;;15.69;89.06;155392.66;5012079;28;20436;-76
2022/08/21 01:59:37;;;;;;;3.90;3.30;;;;;;;15.66;88.85;155384.84;5012751;28;20464;-76
2022/08/21 02:02:04;;;;;;;4.50;3.10;;;;;;;15.67;89.21;155387.41;5021332;28;21011;-76
2022/08/21 02:04:31;;;;;;;4.13;3.73;;;;;;;15.65;89.63;155382.22;5032759;28;20529;-76
2022/08/21 02:06:58;;;;;;;4.40;2.93;;;;;;;15.61;88.88;155371.84;5049859;28;20454;-76
2022/08/21 02:09:24;;;;;;;3.83;3.40;;;;;;;15.58;88.68;155362.75;5030568;28;20427;-76
2022/08/21 02:11:51;;;;;;;3.50;3.20;;;;;;;15.57;88.69;155361.44;5029476;28;20531;-76
2022/08/21 02:14:19;;;;;;;3.27;2.90;;;;;;;15.52;89.59;155348.44;5029935;28;20503;-73
2022/08/21 02:16:46;;;;;;;4.60;3.53;;;;;;;15.47;90.10;155335.44;5031037;28;20446;-76
2022/08/21 02:19:15;;;;;;;7.13;3.37;;;;;;;15.45;90.11;155328.91;5012249;28;20446;-86
2022/08/21 02:21:42;;;;;;;4.00;3.00;;;;;;;15.43;89.16;155325.00;4996050;28;20544;-86
2022/08/21 02:24:09;;;;;;;3.93;3.53;;;;;;;15.48;88.56;155338.06;5013789;28;20509;-86
2022/08/21 02:26:36;;;;;;;3.87;3.47;;;;;;;15.48;88.33;155338.06;5015594;28;20470;-85
2022/08/21 02:29:03;;;;;;;4.13;3.07;;;;;;;15.44;88.23;155326.28;5023778;28;20550;-85
2022/08/21 02:31:32;;;;;;;5.17;3.00;;;;;;;15.42;88.19;155321.09;5034947;28;20450;-85
2022/08/21 02:33:59;;;;;;;4.77;3.90;;;;;;;15.38;89.41;155311.97;5034507;28;21040;-85
2022/08/21 02:36:26;;;;;;;5.00;3.33;;;;;;;15.30;90.09;155291.22;5015520;28;20538;-85
2022/08/21 02:38:53;;;;;;;3.47;3.17;;;;;;;15.20;91.64;155266.50;5015408;28;20505;-85
2022/08/21 02:41:21;;;;;;;4.00;3.33;;;;;;;15.14;91.64;155249.66;5035441;28;20442;-85
2022/08/21 02:43:48;;;;;;;3.83;3.53;;;;;;;15.07;91.74;155232.72;5036326;28;20442;-85
2022/08/21 02:46:17;;;;;;;4.93;3.70;;;;;;;15.02;91.78;155218.44;5036089;28;20457;-85
2022/08/21 02:48:46;;;;;;;4.97;3.60;;;;;;;14.98;91.87;155208.06;5019051;28;20947;-85
2022/08/21 02:51:14;;;;;;;6.23;3.53;;;;;;;14.93;92.82;155195.06;5020808;28;20455;-85
2022/08/21 02:53:42;;;;;;;4.47;3.40;;;;;;;14.87;93.29;155180.78;5033612;28;20546;-85
2022/08/21 02:56:11;;;;;;;4.17;3.77;;;;;;;14.85;93.38;155175.53;5053552;28;20875;-85
2022/08/21 02:58:41;;;;;;;4.23;3.30;;;;;;;14.86;93.01;155178.16;5035047;28;20451;-83
2022/08/21 03:01:09;;;;;;;4.30;3.90;;;;;;;14.86;92.73;155178.16;5009661;28;20464;-84
2022/08/21 03:03:37;;;;;;;4.77;3.80;;;;;;;14.84;92.97;155172.97;5015502;28;20452;-83
2022/08/21 03:06:06;;;;;;;5.90;4.10;;;;;;;14.85;92.84;155174.28;5014013;28;20423;-85
2022/08/21 03:08:32;;;;;;;4.20;3.50;;;;;;;14.83;93.05;155169.06;5033785;28;20490;-85
2022/08/21 03:11:00;;;;;;;4.63;4.20;;;;;;;14.84;93.61;155171.66;5032939;28;20471;-85
2022/08/21 03:13:27;;;;;;;5.40;3.60;;;;;;;14.83;93.02;155169.06;5035884;28;20486;-85
2022/08/21 03:15:54;;;;;;;4.97;3.70;;;;;;;14.79;92.70;155160.00;5052077;28;20470;-76
2022/08/21 03:18:21;;;;;;;3.87;3.57;;;;;;;14.79;92.70;155160.00;5035623;28;20447;-76
2022/08/21 03:20:48;;;;;;;5.33;3.23;;;;;;;14.78;92.47;155157.38;5020526;28;20448;-76
2022/08/21 03:23:17;;;;;;;5.67;3.40;;;;;;;14.81;93.30;155163.88;5030324;28;20451;-76
2022/08/21 03:25:45;;;;;;;5.30;4.40;;;;;;;14.81;94.23;155165.19;5033681;28;20466;-76
2022/08/21 03:28:15;;;;;;;4.30;3.57;;;;;;;14.81;93.12;155163.88;5014888;28;20515;-75
2022/08/21 03:30:42;;;;;;;6.83;4.07;;;;;;;14.79;93.31;155158.69;5019494;28;20451;-76
2022/08/21 03:33:09;;;;;;;5.37;3.50;;;;;;;14.75;93.65;155148.25;5043057;28;20519;-76
2022/08/21 03:35:35;;;;;;;4.40;4.00;;;;;;;14.68;94.43;155130.09;5033027;28;20568;-75
2022/08/21 03:38:02;;;;;;;5.20;3.33;;;;;;;14.67;94.53;155127.53;5008127;28;20440;-76
2022/08/21 03:40:31;;;;;;;4.90;3.53;;;;;;;14.63;94.20;155119.72;5010209;28;20456;-76
2022/08/21 03:42:58;;;;;;;4.27;3.87;;;;;;;14.64;94.11;155122.28;5032428;28;20443;-75
2022/08/21 03:45:26;;;;;;;4.90;3.50;;;;;;;14.69;94.63;155134.03;5011221;28;20522;-76
2022/08/21 03:47:55;;;;;;;4.40;3.30;;;;;;;14.64;94.13;155122.28;4994651;28;20476;-76
2022/08/21 03:50:22;;;;;;;4.37;3.23;;;;;;;14.59;95.20;155109.31;5025085;28;20487;-76
2022/08/21 03:52:49;;;;;;;4.00;3.60;;;;;;;14.51;96.19;155088.53;5002782;28;20448;-76
2022/08/21 03:55:16;;;;;;;4.97;4.10;;;;;;;14.46;97.09;155075.53;5017502;28;20565;-76
2022/08/21 03:57:45;;;;;;;4.90;3.50;;;;;;;14.44;96.71;155070.38;5015734;28;20522;-75
2022/08/21 04:00:13;;;;;;;4.40;3.70;;;;;;;14.43;97.75;155067.75;5034139;28;20525;-74
2022/08/21 04:02:40;;;;;;;5.20;4.00;;;;;;;14.40;97.35;155059.94;5052144;28;20887;-76
2022/08/21 04:05:08;;;;;;;3.47;3.17;;;;;;;14.42;97.00;155065.19;5051101;28;20519;-74
2022/08/21 04:07:35;;;;;;;7.00;4.07;;;;;;;14.41;96.48;155062.56;5025208;28;20443;-74
2022/08/21 04:10:02;;;;;;;5.43;4.17;;;;;;;14.47;96.91;155078.16;5046853;28;20451;-74
2022/08/21 04:12:28;;;;;;;4.53;3.57;;;;;;;14.47;95.74;155078.16;5020760;28;20479;-75
2022/08/21 04:14:56;;;;;;;3.97;3.57;;;;;;;14.42;95.41;155063.88;4998203;28;20476;-74
2022/08/21 04:17:23;;;;;;;7.43;3.80;;;;;;;14.41;95.68;155061.25;5031686;28;20499;-75
2022/08/21 04:19:50;;;;;;;5.03;4.53;;;;;;;14.37;96.54;155052.19;5014225;28;21051;-74
2022/08/21 04:22:17;;;;;;;11.23;3.73;;;;;;;14.36;96.81;155048.28;5014905;28;20443;-74
2022/08/21 04:24:43;;;;;;;4.10;3.70;;;;;;;14.33;97.19;155041.78;5013993;28;20526;-85
2022/08/21 04:27:11;;;;;;;4.30;3.80;;;;;;;14.33;97.54;155041.78;5012726;28;20463;-84
2022/08/21 04:29:37;;;;;;;3.90;3.50;;;;;;;14.35;97.19;155046.97;5021462;28;20537;-84
2022/08/21 04:32:06;;;;;;;4.53;3.40;;;;;;;14.37;97.72;155052.19;5025560;28;20494;-82
2022/08/21 04:34:33;;;;;;;4.50;3.57;;;;;;;14.40;96.63;155059.94;5031767;28;20431;-84
2022/08/21 04:37:00;;;;;;;5.30;3.63;;;;;;;14.41;96.57;155061.25;5031134;28;20452;-83
2022/08/21 04:39:26;;;;;;;4.33;3.90;;;;;;;14.40;96.28;155059.94;5016513;28;20483;-83
2022/08/21 04:41:53;;;;;;;4.33;3.50;;;;;;;14.40;96.25;155059.94;5033560;28;20450;-82
2022/08/21 04:44:20;;;;;;;3.87;3.57;;;;;;;14.44;96.73;155070.38;5026119;28;20484;-83
2022/08/21 04:46:47;;;;;;;6.33;3.90;;;;;;;14.46;96.59;155075.53;5016724;28;20455;-82
2022/08/21 04:49:15;;;;;;;4.57;3.70;;;;;;;14.51;97.32;155088.53;5033244;28;20521;-82
2022/08/21 04:51:41;;;;;;;4.93;3.83;;;;;;;14.54;96.41;155096.31;5019972;28;20445;-82
2022/08/21 04:54:12;;;;;;;7.13;3.60;;;;;;;14.52;96.10;155091.16;5011850;28;20482;-83
2022/08/21 04:56:41;;;;;;;3.57;3.03;;;;;;;14.57;96.49;155104.13;5008517;28;20526;-82
2022/08/21 04:59:12;;;;;;;4.00;3.37;;;;;;;14.59;95.69;155108.00;5013544;28;20542;-82
2022/08/21 05:01:40;;;;;;;5.00;4.17;;;;;;;14.59;95.78;155108.00;5012152;28;20484;-82
2022/08/21 05:04:10;;;;;;;4.47;3.80;;;;;;;14.64;95.78;155121.00;5030203;28;20491;-83
2022/08/21 05:06:39;;;;;;;4.30;3.90;;;;;;;14.69;95.06;155134.03;5023183;28;20847;-83
2022/08/21 05:09:06;;;;;;;8.00;4.10;;;;;;;14.74;95.98;155145.69;5048423;28;20435;-83
2022/08/21 05:11:34;;;;;;;4.13;3.47;;;;;;;14.72;94.75;155140.50;5031479;28;20494;-83
2022/08/21 05:14:01;;;;;;;4.00;3.60;;;;;;;14.72;95.71;155140.50;5013751;28;20505;-83
2022/08/21 05:16:28;;;;;;;4.10;3.70;;;;;;;14.79;95.37;155158.69;5013528;28;20559;-83
2022/08/21 05:18:55;;;;;;;6.20;3.50;;;;;;;14.83;94.72;155169.06;5030224;28;20687;-83
2022/08/21 05:21:22;;;;;;;4.50;4.10;;;;;;;14.88;94.15;155182.09;5045006;28;20501;-83
2022/08/21 05:23:50;;;;;;;4.67;3.60;;;;;;;14.95;94.92;155200.25;5050576;28;20478;-84
2022/08/21 05:26:16;;;;;;;5.07;3.60;;;;;;;15.09;94.70;155236.66;5050991;28;20423;-83
2022/08/21 05:28:43;;;;;;;4.57;4.17;;;;;;;15.24;94.47;155275.63;5044076;28;20444;-83
2022/08/21 05:31:10;;;;;;;4.63;3.90;;;;;;;15.51;93.16;155344.56;5026224;28;20472;-83
2022/08/21 05:33:36;;;;;;;4.23;3.83;;;;;;;15.82;92.27;155426.44;5012571;28;20478;-83
2022/08/21 05:36:04;;;;;;;4.50;4.07;;;;;;;16.07;89.47;155490.13;5012565;28;20574;-84
2022/08/21 05:38:30;;;;;;;4.20;3.30;;;;;;;16.34;89.61;155559.06;4996312;28;20934;-83
2022/08/21 05:40:58;;;;;;;5.90;4.33;;;;;;;16.64;89.84;155635.84;5027678;28;20971;-83
2022/08/21 05:43:25;;;;;;;5.27;3.57;;;;;;;16.89;89.09;155702.19;5051292;28;20439;-83
2022/08/21 05:45:52;;;;;;;4.40;3.50;;;;;;;17.14;88.42;155765.97;5033017;28;20724;-83
2022/08/21 05:48:22;;;;;;;4.80;4.30;;;;;;;17.34;86.52;155818.00;5049555;28;20882;-83
2022/08/21 05:50:49;;;;;;;5.40;4.20;;;;;;;17.54;87.23;155868.84;5046708;28;20926;-83
2022/08/21 05:53:17;;;;;;;4.10;3.57;;;;;;;17.74;85.45;155919.63;5012245;28;20535;-83
2022/08/21 05:55:45;;;;;;;4.30;3.63;;;;;;;17.86;84.25;155952.16;5012116;28;20478;-83
2022/08/21 05:58:13;;;;;;;4.30;3.67;;;;;;;18.03;83.31;155995.16;5040375;28;20456;-84
2022/08/21 06:00:41;;;;;;;6.73;3.37;;;;;;;18.23;82.15;156047.22;5034212;28;20438;-83
2022/08/21 06:03:12;;;;;;;5.57;3.80;;;;;;;18.51;81.20;156118.88;5055106;28;20530;-83
2022/08/21 06:05:38;;;;;;;3.97;3.57;;;;;;;18.75;80.89;156181.41;5030853;28;20459;-83
2022/08/21 06:08:05;;;;;;;5.33;4.20;;;;;;;18.95;78.61;156233.56;5015606;28;20532;-83
2022/08/21 06:10:32;;;;;;;4.50;3.83;;;;;;;19.15;78.93;156285.66;5034243;28;20497;-83
2022/08/21 06:12:59;;;;;;;4.47;3.90;;;;;;;19.28;76.70;156319.53;5034458;28;20534;-83
2022/08/21 06:15:27;;;;;;;4.93;3.77;;;;;;;19.54;77.90;156386.06;5032365;28;20478;-84
2022/08/21 06:17:54;;;;;;;3.47;3.17;;;;;;;19.73;74.47;156434.28;5024692;28;20478;-83
2022/08/21 06:20:21;;;;;;;3.73;3.33;;;;;;;20.02;74.79;156511.22;5016649;28;20434;-84
2022/08/21 06:22:47;;;;;;;4.80;3.37;;;;;;;20.37;74.79;156599.97;5017473;28;20459;-84
2022/08/21 06:25:14;;;;;;;5.67;3.37;;;;;;;20.67;74.28;156676.94;5016506;28;20794;-84
2022/08/21 06:27:41;;;;;;;4.53;4.13;;;;;;;20.91;72.71;156739.56;5014241;28;20455;-84
2022/08/21 06:30:09;;;;;;;4.60;3.60;;;;;;;21.14;72.93;156799.63;5021777;28;20438;-84
2022/08/21 06:32:37;;;;;;;4.60;3.50;;;;;;;21.44;71.61;156877.97;5018278;28;20458;-83
2022/08/21 06:35:05;;;;;;;4.47;3.20;;;;;;;21.70;69.26;156945.84;5033667;28;20467;-84
2022/08/21 06:37:32;;;;;;;4.77;3.70;;;;;;;21.94;68.71;157007.25;5025559;28;20528;-83
2022/08/21 06:39:59;;;;;;;4.53;3.87;;;;;;;22.13;66.61;157055.56;5016138;28;20439;-83
2022/08/21 06:42:27;;;;;;;4.00;3.50;;;;;;;22.30;67.06;157099.94;5016400;28;20501;-83
2022/08/21 06:44:55;;;;;;;5.30;3.60;;;;;;;22.50;65.71;157152.22;5000370;28;20825;-83
2022/08/21 06:47:22;;;;;;;3.50;3.20;;;;;;;22.74;62.01;157213.69;5033536;28;20538;-83
2022/08/21 06:49:50;;;;;;;5.20;3.63;;;;;;;22.82;62.66;157234.59;5033675;28;20922;-83
2022/08/21 06:52:17;;;;;;;4.43;4.03;;;;;;;22.83;59.37;157237.16;5032861;28;20447;-84
2022/08/21 06:54:43;;;;;;;4.10;3.60;;;;;;;22.90;63.55;157255.50;5021976;28;20566;-84
2022/08/21 06:57:10;;;;;;;6.73;3.93;;;;;;;23.28;61.85;157353.47;5034825;28;20471;-83
2022/08/21 06:59:37;;;;;;;5.00;3.93;;;;;;;23.42;61.52;157390.13;5035675;28;20494;-83
2022/08/21 07:02:04;;;;;;;7.37;3.93;;;;;;;23.75;58.86;157476.38;5035680;28;20453;-83
2022/08/21 07:04:31;;;;;;;5.43;4.20;;;;;;;23.81;60.69;157492.06;5015659;28;20804;-83
2022/08/21 07:07:00;;;;;;;4.27;3.70;;;;;;;23.82;58.25;157494.72;5032785;28;20518;-83
2022/08/21 07:09:27;;;;;;;4.47;4.07;;;;;;;23.82;59.55;157493.41;5031695;28;20509;-83
2022/08/21 07:11:57;;;;;;;3.93;3.60;;;;;;;23.85;59.88;157502.56;5013763;28;20535;-84
2022/08/21 07:14:24;;;;;;;4.23;3.80;;;;;;;23.93;57.95;157522.16;5018518;28;20543;-84
2022/08/21 07:16:51;;;;;;;4.20;3.80;;;;;;;24.18;57.98;157588.91;5032106;28;20478;-84
2022/08/21 07:19:19;;;;;;;4.40;4.00;;;;;;;24.16;57.83;157583.69;5013770;28;20452;-84
2022/08/21 07:21:46;;;;;;;6.77;4.40;;;;;;;24.38;56.74;157639.91;5045539;28;20513;-84
2022/08/21 07:24:14;;;;;;;4.57;4.17;;;;;;;24.64;56.09;157706.63;5033765;28;20435;-83
2022/08/21 07:26:41;;;;;;;5.93;4.20;;;;;;;24.64;56.42;157707.94;5012531;28;20472;-84
2022/08/21 07:29:08;;;;;;;5.77;4.10;;;;;;;24.70;56.26;157722.31;5007418;28;20854;-84
2022/08/21 07:31:35;;;;;;;4.73;4.00;;;;;;;24.71;55.70;157724.91;5029334;28;20474;-84
2022/08/21 07:34:01;;;;;;;5.17;4.30;;;;;;;24.74;55.75;157734.09;5011413;28;20930;-83
2022/08/21 07:36:28;;;;;;;4.43;3.80;;;;;;;24.78;55.28;157743.25;5014254;28;20479;-83
2022/08/21 07:38:55;;;;;;;5.33;4.67;;;;;;;24.88;55.24;157769.47;5015432;28;20542;-83
2022/08/21 07:41:26;;;;;;;4.20;3.80;;;;;;;25.11;55.35;157828.31;5031910;28;20820;-84
2022/08/21 07:43:52;;;;;;;4.20;3.77;;;;;;;25.12;54.80;157832.28;5014518;28;20938;-83
2022/08/21 07:46:20;;;;;;;4.40;4.00;;;;;;;25.45;52.68;157917.31;5014065;28;20444;-83
2022/08/21 07:48:50;;;;;;;4.33;3.93;;;;;;;25.61;52.06;157957.94;5032651;28;20443;-83
2022/08/21 07:51:18;;;;;;;5.30;4.50;;;;;;;25.47;52.63;157921.31;5039332;28;20493;-83
2022/08/21 07:53:49;;;;;;;4.60;4.20;;;;;;;25.54;53.47;157940.94;5033177;28;20452;-83
2022/08/21 07:56:17;;;;;;;4.13;3.73;;;;;;;25.42;52.95;157909.44;5013978;28;20472;-83
2022/08/21 07:58:45;;;;;;;4.87;3.80;;;;;;;25.85;52.30;158020.78;5014339;28;20533;-83
2022/08/21 08:01:12;;;;;;;6.47;4.67;;;;;;;25.83;52.36;158015.53;5014491;28;20500;-83
2022/08/21 08:03:39;;;;;;;4.93;4.50;;;;;;;25.64;52.29;157967.09;5032905;28;20542;-84
2022/08/21 08:06:11;;;;;;;7.47;3.97;;;;;;;25.38;52.16;157900.31;5016540;28;20443;-83
2022/08/21 08:08:37;;;;;;;6.03;4.57;;;;;;;25.87;52.56;158026.00;5033630;28;20450;-84
2022/08/21 08:11:04;;;;;;;5.70;4.00;;;;;;;25.86;51.98;158024.72;5032619;28;20546;-84
2022/08/21 08:13:31;;;;;;;4.80;4.27;;;;;;;25.98;52.08;158054.81;5022492;28;20554;-83
2022/08/21 08:15:59;;;;;;;6.43;4.43;;;;;;;26.24;50.10;158122.94;5018768;28;20471;-84
2022/08/21 08:18:26;;;;;;;6.13;5.30;;;;;;;26.36;52.19;158154.41;5032026;28;20440;-83
2022/08/21 08:20:52;;;;;;;5.37;4.87;;;;;;;26.58;50.21;158212.00;5014525;28;20534;-84
2022/08/21 08:23:19;;;;;;;5.00;4.40;;;;;;;26.27;50.33;158130.81;5013023;28;20491;-84
2022/08/21 08:25:46;;;;;;;5.43;4.87;;;;;;;26.34;51.13;158147.84;5030630;28;20517;-84
2022/08/21 08:28:12;;;;;;;5.93;4.60;;;;;;;26.36;50.70;158154.41;5032155;28;20873;-83
2022/08/21 08:30:39;;;;;;;7.23;4.30;;;;;;;26.28;52.47;158133.44;5015112;28;20443;-83
2022/08/21 08:33:07;;;;;;;4.70;4.30;;;;;;;26.37;52.27;158156.97;5000007;28;20506;-84
2022/08/21 08:35:34;;;;;;;5.10;4.43;;;;;;;26.31;52.48;158141.31;5027431;28;20889;-84
2022/08/21 08:38:01;;;;;;;4.73;3.93;;;;;;;26.78;52.20;158261.81;5051076;28;20443;-84
2022/08/21 08:40:35;;;;;;;5.53;3.70;;;;;;;26.80;51.40;158268.38;5005588;28;20457;-83
2022/08/21 08:43:02;;;;;;;6.13;4.90;;;;;;;26.36;51.14;158154.41;5008537;28;20528;-83
2022/08/21 08:45:31;;;;;;;5.17;4.63;;;;;;;26.86;50.57;158282.78;5042649;28;20454;-83
2022/08/21 08:48:02;;;;;;;6.07;4.43;;;;;;;26.94;49.54;158303.75;5050887;28;20455;-83
2022/08/21 08:50:38;;;;;;;5.77;4.60;;;;;;;26.49;49.54;158188.44;5033768;28;20430;-84
2022/08/21 08:53:07;;;;;;;5.30;4.80;;;;;;;26.57;49.92;158209.41;5011462;28;20466;-84
2022/08/21 08:55:36;;;;;;;4.83;4.33;;;;;;;26.47;50.23;158183.22;4997748;28;20504;-84
2022/08/21 08:58:03;;;;;;;5.53;4.30;;;;;;;26.95;48.66;158306.38;4993518;28;20484;-84
2022/08/21 09:00:31;;;;;;;5.77;3.93;;;;;;;27.14;47.17;158357.44;4993311;28;20922;-84
2022/08/21 09:02:59;;;;;;;5.33;4.37;;;;;;;27.11;47.17;158348.31;4993201;28;21113;-84
2022/08/21 09:05:31;;;;;;;6.30;4.60;;;;;;;27.37;45.20;158416.44;5013556;28;20475;-84
2022/08/21 09:08:16;;;;;;;5.93;4.10;;;;;;;26.75;45.38;158255.22;4993724;28;20447;-84
2022/08/21 09:10:52;;;;;;;4.50;4.10;;;;;;;27.20;43.63;158371.88;5011741;28;20858;-84
2022/08/21 09:13:25;;;;;;;4.83;4.43;;;;;;;27.01;43.40;158323.38;5016819;28;20982;-84
2022/08/21 09:15:56;;;;;;;6.20;4.50;;;;;;;27.18;46.46;158366.63;4992439;28;20518;-84
2022/08/21 09:18:34;;;;;;;5.50;4.13;;;;;;;27.08;45.96;158340.44;5010073;28;20441;-84
2022/08/21 09:21:12;;;;;;;5.87;5.20;;;;;;;26.91;47.36;158297.19;5010467;28;20491;-84
2022/08/21 09:23:46;;;;;;;5.30;4.20;;;;;;;26.11;49.03;158088.84;5017463;28;20455;-84
2022/08/21 09:26:15;;;;;;;6.07;4.37;;;;;;;25.68;51.34;157977.56;5003179;28;20968;-84
2022/08/21 09:28:42;;;;;;;4.67;4.10;;;;;;;26.17;49.65;158103.31;4992553;28;20579;-84
2022/08/21 09:31:15;;;;;;;7.30;5.33;;;;;;;25.68;47.76;157977.56;5010172;28;20452;-84
2022/08/21 09:33:41;;;;;;;5.93;4.70;;;;;;;25.07;48.49;157819.16;5009413;28;20455;-76
2022/08/21 09:36:10;;;;;;;6.20;4.93;;;;;;;24.67;49.70;157715.78;5010135;28;20830;-76
2022/08/21 09:38:37;;;;;;;5.53;4.80;;;;;;;24.47;50.25;157662.13;5002530;28;20732;-81
2022/08/21 09:41:06;;;;;;;5.17;4.70;;;;;;;24.42;50.53;157649.03;5004584;28;20446;-81
2022/08/21 09:43:33;;;;;;;5.33;4.73;;;;;;;24.32;52.00;157624.22;5008940;28;20963;-80
2022/08/21 09:46:10;;;;;;;4.80;3.70;;;;;;;24.79;48.72;157745.88;4995926;28;20458;-81
2022/08/21 09:48:43;;;;;;;5.20;4.70;;;;;;;24.87;48.00;157765.50;4993639;28;20522;-81
2022/08/21 09:51:13;;;;;;;5.70;4.43;;;;;;;24.86;49.51;157762.94;4994561;28;20448;-82
2022/08/21 09:53:45;;;;;;;4.53;4.10;;;;;;;25.08;48.46;157821.78;4993196;28;20449;-81
2022/08/21 09:59:15;;;;;;;6.40;5.73;;;;;;;25.27;47.99;157871.53;5019597;28;20446;-81
2022/08/21 10:01:44;;;;;;;6.20;4.50;;;;;;;25.36;48.10;157895.03;5006855;28;20452;-81
2022/08/21 10:04:11;;;;;;;5.03;4.50;;;;;;;25.31;48.78;157880.69;4996236;28;20456;-80
2022/08/21 10:06:39;;;;;;;5.97;4.20;;;;;;;25.40;48.92;157904.22;5009208;28;20439;-80
2022/08/21 10:09:09;;;;;;;5.87;4.40;;;;;;;25.27;47.98;157871.53;5020739;28;20448;-80
2022/08/21 10:11:36;;;;;;;5.60;5.10;;;;;;;24.84;47.98;157758.97;4983040;28;20617;-81
2022/08/21 10:14:12;;;;;;;7.83;4.63;;;;;;;24.74;49.36;157734.09;5008891;28;20444;-82
2022/08/21 10:16:45;;;;;;;4.47;3.90;;;;;;;25.06;50.53;157815.25;5028984;28;20470;-82
2022/08/21 10:19:21;;;;;;;6.60;4.30;;;;;;;25.30;48.37;157878.06;5026455;28;20551;-83
2022/08/21 10:22:00;;;;;;;6.10;5.50;;;;;;;25.46;47.52;157918.63;5029379;28;20501;-82
2022/08/21 10:24:31;;;;;;;5.10;4.50;;;;;;;25.31;46.97;157881.97;5011863;28;20537;-83
2022/08/21 10:27:06;;;;;;;6.83;4.77;;;;;;;25.20;49.10;157853.22;5010793;28;20804;-83
2022/08/21 10:29:43;;;;;;;8.27;5.47;;;;;;;25.31;47.55;157881.97;5044194;28;20944;-83
2022/08/21 10:32:23;;;;;;;5.07;4.57;;;;;;;25.22;47.35;157857.13;5048662;28;20458;-83
2022/08/21 10:34:57;;;;;;;5.33;4.47;;;;;;;25.07;46.71;157819.16;5009773;28;20456;-82
2022/08/21 10:37:36;;;;;;;4.30;3.90;;;;;;;25.34;47.53;157889.81;5033310;28;20525;-83
2022/08/21 10:40:15;;;;;;;4.90;4.50;;;;;;;25.48;45.98;157923.91;5027511;28;20838;-83
2022/08/21 10:42:50;;;;;;;6.83;5.07;;;;;;;24.64;47.44;157706.63;4994151;28;20456;-84
2022/08/21 10:45:26;;;;;;;5.23;4.77;;;;;;;24.28;51.33;157613.72;5033921;28;20497;-84
2022/08/21 10:47:56;;;;;;;4.93;4.43;;;;;;;24.40;51.06;157645.13;5031886;28;20446;-84
2022/08/21 10:50:35;;;;;;;4.63;4.20;;;;;;;24.52;47.52;157675.19;5022111;28;20492;-83
2022/08/21 10:53:22;;;;;;;5.03;4.60;;;;;;;24.54;48.12;157680.47;5027336;28;20443;-83
2022/08/21 10:55:56;;;;;;;5.73;5.23;;;;;;;24.35;47.36;157630.75;5033148;28;20481;-84
2022/08/21 10:58:27;;;;;;;5.17;4.57;;;;;;;24.49;47.23;157667.38;5048056;28;20484;-83
2022/08/21 11:00:58;;;;;;;5.40;4.40;;;;;;;24.62;47.00;157701.38;5057207;28;20433;-83
2022/08/21 11:03:30;;;;;;;5.67;4.87;;;;;;;24.53;46.11;157679.16;5034608;28;20447;-83
2022/08/21 11:06:03;;;;;;;7.83;4.40;;;;;;;24.71;46.56;157724.91;5036082;28;20519;-84
2022/08/21 11:08:35;;;;;;;6.57;4.40;;;;;;;24.63;46.17;157703.97;5040073;28;20490;-83
2022/08/21 11:11:04;;;;;;;6.00;4.70;;;;;;;24.41;46.54;157646.47;5038042;28;20440;-83
2022/08/21 11:13:37;;;;;;;7.03;4.90;;;;;;;24.32;46.24;157622.88;5017981;28;20479;-82
2022/08/21 11:16:08;;;;;;;6.13;5.00;;;;;;;24.32;47.33;157622.88;5038612;28;20448;-82
2022/08/21 11:18:39;;;;;;;6.23;4.80;;;;;;;24.13;46.75;157575.81;5036062;28;20542;-82
2022/08/21 11:21:15;;;;;;;5.27;4.17;;;;;;;24.37;47.64;157637.28;5035417;28;20440;-83
2022/08/21 11:23:47;;;;;;;6.20;5.07;;;;;;;24.29;46.90;157615.03;5035657;28;20443;-84
2022/08/21 11:26:16;;;;;;;5.17;4.67;;;;;;;24.27;46.70;157609.81;5035862;28;20436;-84
2022/08/21 11:28:49;;;;;;;6.10;4.17;;;;;;;24.30;46.65;157619.00;5052248;28;20530;-84
2022/08/21 11:31:26;;;;;;;7.13;4.70;;;;;;;24.39;46.02;157641.19;5006171;28;20972;-84
2022/08/21 11:34:05;;;;;;;4.13;3.73;;;;;;;24.44;46.13;157654.25;5058745;28;20504;-84